createdAt,value
2023-05-09T00:00:03.840Z,96.9796
2023-05-09T00:01:06.902Z,97.0846
2023-05-09T00:02:09.882Z,97.1328
2023-05-09T00:03:12.982Z,97.2077
2023-05-09T00:04:16.004Z,97.2858
2023-05-09T00:05:19.007Z,97.3454
2023-05-09T00:06:21.972Z,97.3930
2023-05-09T00:07:24.961Z,97.4215
2023-05-09T00:08:27.967Z,97.3879
2023-05-09T00:09:30.971Z,97.3465
2023-05-09T00:10:33.985Z,97.3721
2023-05-09T00:11:37.052Z,97.3612
2023-05-09T00:12:40.088Z,97.3817
2023-05-09T00:13:43.061Z,97.4091
2023-05-09T00:14:46.059Z,97.4173
2023-05-09T00:15:49.030Z,97.4459
2023-05-09T00:16:52.125Z,97.4460
2023-05-09T00:17:55.119Z,97.4938
2023-05-09T00:18:58.130Z,97.5390
2023-05-09T00:20:01.112Z,97.6151
2023-05-09T00:21:04.108Z,97.6598
2023-05-09T00:22:07.163Z,97.6300
2023-05-09T00:23:10.129Z,97.5705
2023-05-09T00:24:13.122Z,97.5236
2023-05-09T00:25:16.332Z,97.4628
2023-05-09T00:26:19.463Z,97.4235
2023-05-09T00:27:22.472Z,97.3150
2023-05-09T00:28:25.450Z,97.1646
2023-05-09T00:29:28.437Z,97.1040
2023-05-09T00:30:31.407Z,97.0030
2023-05-09T00:31:34.421Z,96.9732
2023-05-09T00:32:37.400Z,96.9579
2023-05-09T00:33:40.424Z,96.8678
2023-05-09T00:34:43.443Z,96.5680
2023-05-09T00:35:46.369Z,96.3098
2023-05-09T00:36:49.383Z,96.3444
2023-05-09T00:37:52.340Z,96.4113
2023-05-09T00:38:55.294Z,96.4313
2023-05-09T00:39:58.274Z,96.5622
2023-05-09T00:41:01.253Z,96.7870
2023-05-09T00:42:04.226Z,97.0652
2023-05-09T00:43:07.219Z,97.2346
2023-05-09T00:44:10.190Z,97.3690
2023-05-09T00:45:13.316Z,97.5728
2023-05-09T00:46:16.532Z,97.8249
2023-05-09T00:47:19.601Z,98.0114
2023-05-09T00:48:22.583Z,98.1500
2023-05-09T00:49:25.575Z,98.2398
2023-05-09T00:50:28.583Z,98.2647
2023-05-09T00:51:31.525Z,98.2076
2023-05-09T00:52:34.558Z,98.1195
2023-05-09T00:53:37.537Z,98.0827
2023-05-09T00:54:40.550Z,98.0439
2023-05-09T00:55:43.617Z,98.0839
2023-05-09T00:56:46.564Z,98.1488
2023-05-09T00:57:49.531Z,98.1700
2023-05-09T00:58:52.521Z,98.2164
2023-05-09T00:59:55.516Z,98.2873
2023-05-09T01:00:58.837Z,98.3373
2023-05-09T01:02:01.837Z,98.3555
2023-05-09T01:03:04.920Z,98.3487
2023-05-09T01:04:07.938Z,98.3540
2023-05-09T01:05:10.965Z,98.4048
2023-05-09T01:06:13.965Z,98.4125
2023-05-09T01:07:16.942Z,98.4580
2023-05-09T01:08:19.894Z,98.4083
2023-05-09T01:09:23.138Z,98.2972
2023-05-09T01:10:26.127Z,98.2683
2023-05-09T01:11:29.134Z,98.2800
2023-05-09T01:12:32.114Z,98.3036
2023-05-09T01:13:35.138Z,98.3621
2023-05-09T01:14:38.142Z,98.4373
2023-05-09T01:15:41.200Z,98.4969
2023-05-09T01:16:44.151Z,98.5975
2023-05-09T01:17:47.161Z,98.6586
2023-05-09T01:18:50.109Z,98.7324
2023-05-09T01:19:53.079Z,98.7993
2023-05-09T01:20:56.064Z,98.8891
2023-05-09T01:21:59.088Z,98.9224
2023-05-09T01:23:02.017Z,98.9487
2023-05-09T01:24:05.005Z,98.9966
2023-05-09T01:25:08.227Z,99.0297
2023-05-09T01:26:11.203Z,99.0659
2023-05-09T01:27:14.229Z,99.0772
2023-05-09T01:28:17.189Z,99.0901
2023-05-09T01:29:20.427Z,99.0997
2023-05-09T01:30:23.449Z,99.1140
2023-05-09T01:31:26.506Z,99.1308
2023-05-09T01:32:29.514Z,99.1852
2023-05-09T01:33:32.459Z,99.2567
2023-05-09T01:34:35.461Z,99.3209
2023-05-09T01:35:38.428Z,99.3492
2023-05-09T01:36:41.388Z,99.3727
2023-05-09T01:37:44.405Z,99.3951
2023-05-09T01:38:47.341Z,99.4215
2023-05-09T01:39:50.348Z,99.4775
2023-05-09T01:40:53.362Z,99.5173
2023-05-09T01:41:56.899Z,99.5358
2023-05-09T01:42:59.889Z,99.5637
2023-05-09T01:44:02.910Z,99.5746
2023-05-09T01:45:06.220Z,99.5894
2023-05-09T01:46:09.218Z,99.5939
2023-05-09T01:47:12.415Z,99.5765
2023-05-09T01:48:15.416Z,99.6083
2023-05-09T01:49:19.167Z,99.6029
2023-05-09T01:50:22.141Z,99.6045
2023-05-09T01:51:25.109Z,99.6420
2023-05-09T01:52:28.098Z,99.7037
2023-05-09T01:53:31.120Z,99.7873
2023-05-09T01:54:34.073Z,99.8261
2023-05-09T01:55:37.061Z,99.8353
2023-05-09T01:56:40.043Z,99.8331
2023-05-09T01:57:43.052Z,99.8337
2023-05-09T01:58:46.005Z,99.8372
2023-05-09T01:59:49.230Z,99.8326
2023-05-09T02:00:52.249Z,99.8398
2023-05-09T02:01:55.886Z,99.8569
2023-05-09T02:02:58.920Z,99.8909
2023-05-09T02:04:01.919Z,99.8816
2023-05-09T02:05:04.924Z,99.9000
2023-05-09T02:06:07.648Z,99.8923
2023-05-09T02:07:10.845Z,99.8905
2023-05-09T02:08:13.826Z,99.8991
2023-05-09T02:09:16.850Z,99.9361
2023-05-09T02:11:20.065Z,99.9686
2023-05-09T02:12:23.048Z,100.0000
2023-05-09T02:13:26.078Z,100.0000
2023-05-09T02:14:29.124Z,100.0000
2023-05-09T02:15:32.113Z,100.0000
2023-05-09T02:16:35.156Z,100.0000
2023-05-09T02:17:38.159Z,100.0000
2023-05-09T02:18:41.100Z,100.0000
2023-05-09T02:19:42.415Z,100.0000
2023-05-09T02:20:45.483Z,100.0000
2023-05-09T02:21:48.424Z,100.0000
2023-05-09T02:22:51.662Z,100.0000
2023-05-09T02:23:54.638Z,100.0000
2023-05-09T02:24:57.983Z,100.0000
2023-05-09T02:26:00.931Z,100.0000
2023-05-09T02:27:04.292Z,100.0000
2023-05-09T02:28:07.297Z,100.0000
2023-05-09T02:29:10.300Z,100.0000
2023-05-09T02:30:13.496Z,100.0000
2023-05-09T02:31:16.508Z,100.0000
2023-05-09T02:32:19.752Z,100.0000
2023-05-09T02:33:22.724Z,100.0000
2023-05-09T02:34:25.693Z,100.0000
2023-05-09T02:35:28.694Z,100.0000
2023-05-09T02:36:31.684Z,100.0000
2023-05-09T02:37:34.938Z,100.0000
2023-05-09T02:38:37.925Z,100.0000
2023-05-09T02:39:41.028Z,100.0000
2023-05-09T02:40:44.061Z,100.0000
2023-05-09T02:41:47.013Z,100.0000
2023-05-09T02:42:49.997Z,100.0000
2023-05-09T02:43:53.023Z,100.0000
2023-05-09T02:44:55.940Z,100.0000
2023-05-09T02:45:58.992Z,100.0000
2023-05-09T02:47:01.919Z,100.0000
2023-05-09T02:48:07.640Z,100.0000
2023-05-09T02:49:07.874Z,100.0000
2023-05-09T02:50:11.201Z,100.0000
2023-05-09T02:51:14.206Z,100.0000
2023-05-09T02:52:17.193Z,100.0000
2023-05-09T02:53:20.156Z,100.0000
2023-05-09T02:54:23.135Z,100.0000
2023-05-09T02:55:26.152Z,100.0000
2023-05-09T02:56:29.168Z,100.0000
2023-05-09T02:57:32.124Z,100.0000
2023-05-09T02:58:35.102Z,100.0000
2023-05-09T02:59:38.061Z,100.0000
2023-05-09T03:00:41.067Z,100.0000
2023-05-09T03:01:44.107Z,100.0000
2023-05-09T03:02:47.164Z,100.0000
2023-05-09T03:03:50.180Z,100.0000
2023-05-09T03:04:53.127Z,100.0000
2023-05-09T03:05:56.105Z,100.0000
2023-05-09T03:06:59.112Z,100.0000
2023-05-09T03:08:02.097Z,100.0000
2023-05-09T03:09:05.111Z,100.0000
2023-05-09T03:10:08.075Z,100.0000
2023-05-09T03:11:11.069Z,100.0000
2023-05-09T03:12:14.094Z,100.0000
2023-05-09T03:13:17.104Z,100.0000
2023-05-09T03:14:20.082Z,100.0000
2023-05-09T03:15:23.082Z,100.0000
2023-05-09T03:16:26.055Z,100.0000
2023-05-09T03:17:26.635Z,100.0000
2023-05-09T03:18:29.613Z,100.0000
2023-05-09T03:19:32.617Z,100.0000
2023-05-09T03:20:35.958Z,100.0000
2023-05-09T03:21:38.934Z,100.0000
2023-05-09T03:22:41.915Z,100.0000
2023-05-09T03:23:44.942Z,100.0000
2023-05-09T03:24:48.002Z,100.0000
2023-05-09T03:25:51.318Z,100.0000
2023-05-09T03:26:54.315Z,100.0000
2023-05-09T03:27:57.375Z,100.0000
2023-05-09T03:29:00.318Z,100.0000
2023-05-09T03:30:03.341Z,100.0000
2023-05-09T03:31:06.462Z,100.0000
2023-05-09T03:32:09.481Z,100.0000
2023-05-09T03:33:13.004Z,100.0000
2023-05-09T03:34:16.006Z,100.0000
2023-05-09T03:35:19.000Z,100.0000
2023-05-09T03:36:21.974Z,100.0000
2023-05-09T03:37:26.901Z,100.0000
2023-05-09T03:38:26.778Z,100.0000
2023-05-09T03:39:29.770Z,100.0000
2023-05-09T03:40:32.986Z,100.0000
2023-05-09T03:41:35.983Z,100.0000
2023-05-09T03:42:39.213Z,100.0000
2023-05-09T03:43:42.274Z,100.0000
2023-05-09T03:44:45.245Z,100.0000
2023-05-09T03:45:48.292Z,100.0000
2023-05-09T03:46:51.357Z,100.0000
2023-05-09T03:47:54.087Z,100.0000
2023-05-09T03:48:57.094Z,100.0000
2023-05-09T03:50:00.114Z,100.0000
2023-05-09T03:51:03.112Z,100.0000
2023-05-09T03:52:06.154Z,100.0000
2023-05-09T03:53:09.175Z,100.0000
2023-05-09T03:54:12.191Z,100.0000
2023-05-09T03:55:15.348Z,100.0000
2023-05-09T03:56:18.759Z,100.0000
2023-05-09T03:57:21.778Z,100.0000
2023-05-09T03:58:24.794Z,100.0000
2023-05-09T03:59:27.845Z,100.0000
2023-05-09T04:00:30.804Z,100.0000
2023-05-09T04:01:33.827Z,100.0000
2023-05-09T04:02:36.915Z,100.0000
2023-05-09T04:03:40.169Z,100.0000
2023-05-09T04:04:43.170Z,100.0000
2023-05-09T04:05:46.181Z,100.0000
2023-05-09T04:06:49.194Z,100.0000
2023-05-09T04:07:52.206Z,100.0000
2023-05-09T04:08:55.205Z,100.0000
2023-05-09T04:09:58.214Z,100.0000
2023-05-09T04:11:01.474Z,100.0000
2023-05-09T04:12:04.499Z,100.0000
2023-05-09T04:13:07.592Z,100.0000
2023-05-09T04:14:10.567Z,100.0000
2023-05-09T04:15:13.954Z,100.0000
2023-05-09T04:16:17.066Z,100.0000
2023-05-09T04:17:20.046Z,100.0000
2023-05-09T04:18:23.062Z,100.0000
2023-05-09T04:19:26.114Z,100.0000
2023-05-09T04:20:29.122Z,100.0000
2023-05-09T04:21:32.152Z,100.0000
2023-05-09T04:22:35.174Z,100.0000
2023-05-09T04:23:36.161Z,100.0000
2023-05-09T04:24:39.160Z,100.0000
2023-05-09T04:25:42.420Z,100.0000
2023-05-09T04:26:45.458Z,100.0000
2023-05-09T04:27:48.466Z,100.0000
2023-05-09T04:28:51.499Z,100.0000
2023-05-09T04:29:54.494Z,100.0000
2023-05-09T04:30:57.740Z,100.0000
2023-05-09T04:32:00.845Z,100.0000
2023-05-09T04:33:03.870Z,100.0000
2023-05-09T04:34:06.886Z,100.0000
2023-05-09T04:35:09.888Z,100.0000
2023-05-09T04:36:12.930Z,100.0000
2023-05-09T04:37:15.951Z,100.0000
2023-05-09T04:38:18.976Z,100.0000
2023-05-09T04:39:21.963Z,100.0000
2023-05-09T04:40:26.857Z,100.0000
2023-05-09T04:41:26.505Z,100.0000
2023-05-09T04:42:29.540Z,100.0000
2023-05-09T04:43:32.607Z,100.0000
2023-05-09T04:44:35.606Z,100.0000
2023-05-09T04:45:36.748Z,100.0000
2023-05-09T04:46:39.855Z,100.0000
2023-05-09T04:47:42.874Z,100.0000
2023-05-09T04:48:45.879Z,100.0000
2023-05-09T04:49:48.884Z,100.0000
2023-05-09T04:50:51.955Z,100.0000
2023-05-09T04:51:54.982Z,100.0000
2023-05-09T04:52:58.035Z,100.0000
2023-05-09T04:54:01.092Z,100.0000
2023-05-09T04:55:04.106Z,100.0000
2023-05-09T04:56:07.150Z,100.0000
2023-05-09T04:57:17.244Z,100.0000
2023-05-09T04:58:11.701Z,100.0000
2023-05-09T04:59:14.734Z,100.0000
2023-05-09T05:00:17.760Z,100.0000
2023-05-09T05:01:20.781Z,99.9963
2023-05-09T05:02:23.825Z,99.9391
2023-05-09T05:03:26.871Z,99.8384
2023-05-09T05:04:29.893Z,99.7673
2023-05-09T05:06:35.988Z,99.6675
2023-05-09T05:07:39.028Z,99.6000
2023-05-09T05:08:42.066Z,99.5062
2023-05-09T05:09:45.079Z,99.3943
2023-05-09T05:10:48.119Z,99.2614
2023-05-09T05:12:00.829Z,99.1205
2023-05-09T05:12:52.726Z,99.0205
2023-05-09T05:13:55.749Z,98.9172
2023-05-09T05:14:58.796Z,98.8528
2023-05-09T05:16:01.849Z,98.7869
2023-05-09T05:17:04.859Z,98.7917
2023-05-09T05:18:08.029Z,98.7237
2023-05-09T05:19:11.021Z,98.6064
2023-05-09T05:20:14.027Z,98.4489
2023-05-09T05:21:17.158Z,98.3479
2023-05-09T05:22:20.118Z,98.2813
2023-05-09T05:23:23.134Z,98.1843
2023-05-09T05:24:26.141Z,98.1077
2023-05-09T05:25:29.163Z,98.0357
2023-05-09T05:26:32.405Z,98.0072
2023-05-09T05:27:35.450Z,97.9127
2023-05-09T05:28:38.477Z,97.7845
2023-05-09T05:29:41.491Z,97.5537
2023-05-09T05:30:44.512Z,97.3549
2023-05-09T05:31:47.599Z,97.2946
2023-05-09T05:33:51.137Z,97.1222
2023-05-09T05:34:54.080Z,96.8136
2023-05-09T05:35:57.122Z,96.5263
2023-05-09T05:37:00.139Z,96.2395
2023-05-09T05:38:03.186Z,96.1274
2023-05-09T05:39:06.207Z,96.0548
2023-05-09T05:40:09.208Z,96.1879
2023-05-09T05:41:12.257Z,96.0764
2023-05-09T05:42:15.278Z,96.2790
2023-05-09T05:43:18.301Z,96.3330
2023-05-09T05:44:21.300Z,96.3347
2023-05-09T05:45:24.322Z,96.2625
2023-05-09T05:46:27.804Z,95.9843
2023-05-09T05:47:30.848Z,95.8355
2023-05-09T05:48:34.459Z,95.9211
2023-05-09T05:49:37.503Z,96.0846
2023-05-09T05:50:48.128Z,95.9384
2023-05-09T05:51:43.792Z,95.9617
2023-05-09T05:52:46.822Z,96.0648
2023-05-09T05:53:50.099Z,96.0819
2023-05-09T05:54:53.162Z,96.3721
2023-05-09T05:55:56.402Z,96.7000
2023-05-09T05:56:59.451Z,96.8969
2023-05-09T05:58:02.433Z,96.9257
2023-05-09T05:59:05.444Z,97.0152
2023-05-09T06:00:08.628Z,97.0362
2023-05-09T06:01:12.469Z,96.7814
2023-05-09T06:02:15.615Z,96.6093
2023-05-09T06:03:18.754Z,96.5498
2023-05-09T06:04:21.980Z,96.3228
2023-05-09T06:05:25.164Z,95.8273
2023-05-09T06:06:28.430Z,95.3485
2023-05-09T06:07:31.417Z,94.8264
2023-05-09T06:08:34.539Z,94.2182
2023-05-09T06:09:37.574Z,94.0772
2023-05-09T06:10:40.639Z,93.8558
2023-05-09T06:11:43.713Z,93.6076
2023-05-09T06:12:46.770Z,93.5551
2023-05-09T06:13:49.981Z,93.6703
2023-05-09T06:14:53.048Z,94.1008
2023-05-09T06:15:57.741Z,94.2407
2023-05-09T06:16:57.661Z,93.7970
2023-05-09T06:18:00.710Z,93.4929
2023-05-09T06:19:03.756Z,93.5645
2023-05-09T06:20:06.758Z,93.8666
2023-05-09T06:21:09.890Z,94.0344
2023-05-09T06:22:12.879Z,94.7009
2023-05-09T06:23:15.904Z,95.1559
2023-05-09T06:24:31.867Z,95.6209
2023-05-09T06:25:20.501Z,95.9400
2023-05-09T06:26:23.518Z,95.9548
2023-05-09T06:27:26.559Z,95.9384
2023-05-09T06:28:29.551Z,95.6850
2023-05-09T06:29:31.901Z,95.1565
2023-05-09T06:30:34.913Z,95.1727
2023-05-09T06:31:37.944Z,94.9021
2023-05-09T06:32:41.045Z,94.2631
2023-05-09T06:33:44.041Z,93.4664
2023-05-09T06:34:47.055Z,92.5931
2023-05-09T06:35:50.070Z,91.2086
2023-05-09T06:36:53.153Z,90.3251
2023-05-09T06:37:56.152Z,90.1656
2023-05-09T06:38:59.213Z,87.4696
2023-05-09T06:40:02.246Z,86.2085
2023-05-09T06:41:05.455Z,85.6325
2023-05-09T06:42:08.457Z,86.1348
2023-05-09T06:43:11.526Z,85.8545
2023-05-09T06:44:14.573Z,86.1554
2023-05-09T06:45:17.853Z,86.6586
2023-05-09T06:46:21.183Z,85.8119
2023-05-09T06:47:24.379Z,85.1136
2023-05-09T06:48:27.368Z,83.0330
2023-05-09T06:49:30.392Z,83.3529
2023-05-09T06:50:33.388Z,83.0283
2023-05-09T06:51:36.267Z,82.6659
2023-05-09T06:52:39.327Z,83.0744
2023-05-09T06:53:42.325Z,85.3610
2023-05-09T06:54:45.360Z,82.9380
2023-05-09T06:55:48.390Z,81.6080
2023-05-09T06:56:51.416Z,81.6778
2023-05-09T06:57:54.443Z,81.7633
2023-05-09T06:58:57.457Z,81.8568
2023-05-09T07:00:00.480Z,82.2198
2023-05-09T07:01:03.493Z,80.2981
2023-05-09T07:02:06.595Z,78.7570
2023-05-09T07:03:09.625Z,79.4202
2023-05-09T07:04:12.628Z,80.2024
2023-05-09T07:05:15.849Z,79.6319
2023-05-09T07:06:19.097Z,79.6016
2023-05-09T07:07:22.141Z,77.3487
2023-05-09T07:08:25.181Z,77.0063
2023-05-09T07:09:28.148Z,74.4465
2023-05-09T07:10:31.180Z,72.6162
2023-05-09T07:11:34.187Z,69.0675
2023-05-09T07:13:39.554Z,65.4301
2023-05-09T07:14:42.572Z,67.0437
2023-05-09T07:15:45.722Z,68.6710
2023-05-09T07:16:48.775Z,70.0481
2023-05-09T07:17:51.786Z,69.5216
2023-05-09T07:18:54.769Z,70.1516
2023-05-09T07:19:57.810Z,70.8046
2023-05-09T07:21:00.827Z,71.8250
2023-05-09T07:22:04.141Z,75.0479
2023-05-09T07:23:07.153Z,74.4594
2023-05-09T07:24:10.256Z,73.2217
2023-05-09T07:25:13.510Z,72.6649
2023-05-09T07:26:16.617Z,71.1518
2023-05-09T07:27:19.657Z,70.6197
2023-05-09T07:28:22.691Z,68.5576
2023-05-09T07:29:25.766Z,68.4965
2023-05-09T07:30:28.750Z,67.1183
2023-05-09T07:31:31.771Z,65.6172
2023-05-09T07:32:34.772Z,66.2855
2023-05-09T07:33:37.789Z,67.1977
2023-05-09T07:34:40.786Z,63.9685
2023-05-09T07:35:43.985Z,61.7732
2023-05-09T07:36:47.000Z,60.4685
2023-05-09T07:37:50.200Z,60.0923
2023-05-09T07:38:53.278Z,60.3072
2023-05-09T07:39:56.058Z,63.5335
2023-05-09T07:40:59.242Z,64.0649
2023-05-09T07:42:02.258Z,65.5045
2023-05-09T07:43:05.313Z,65.6115
2023-05-09T07:44:08.315Z,67.6273
2023-05-09T07:45:11.392Z,69.7208
2023-05-09T07:46:14.715Z,70.6883
2023-05-09T07:47:17.733Z,70.5427
2023-05-09T07:48:20.774Z,70.7768
2023-05-09T07:49:23.797Z,70.8106
2023-05-09T07:50:26.471Z,71.4130
2023-05-09T07:51:29.491Z,71.6428
2023-05-09T07:52:32.564Z,70.4538
2023-05-09T07:53:35.543Z,70.5881
2023-05-09T07:54:38.560Z,69.8852
2023-05-09T07:55:41.648Z,68.6820
2023-05-09T07:56:44.629Z,67.8028
2023-05-09T07:57:47.661Z,67.8382
2023-05-09T07:58:50.717Z,68.4297
2023-05-09T07:59:53.743Z,67.5078
2023-05-09T08:00:56.785Z,66.8388
2023-05-09T08:01:59.842Z,67.0175
2023-05-09T08:03:03.016Z,67.1786
2023-05-09T08:04:06.531Z,66.1208
2023-05-09T08:05:09.570Z,66.1796
2023-05-09T08:06:12.568Z,65.8672
2023-05-09T08:07:15.591Z,64.7642
2023-05-09T08:08:18.597Z,63.6974
2023-05-09T08:09:21.846Z,64.0351
2023-05-09T08:10:24.885Z,66.0673
2023-05-09T08:11:27.927Z,65.0818
2023-05-09T08:12:30.888Z,66.2792
2023-05-09T08:13:33.934Z,65.2884
2023-05-09T08:14:37.003Z,65.8815
2023-05-09T08:15:39.747Z,66.5109
2023-05-09T08:16:42.738Z,67.4027
2023-05-09T08:17:45.853Z,70.5567
2023-05-09T08:18:48.866Z,69.6924
2023-05-09T08:19:51.883Z,68.3374
2023-05-09T08:20:54.894Z,68.9635
2023-05-09T08:21:57.949Z,70.3830
2023-05-09T08:23:00.985Z,69.7147
2023-05-09T08:24:03.985Z,68.0888
2023-05-09T08:25:07.023Z,68.5495
2023-05-09T08:26:10.036Z,69.1585
2023-05-09T08:27:10.307Z,68.7432
2023-05-09T08:28:13.291Z,69.2786
2023-05-09T08:29:16.311Z,70.2778
2023-05-09T08:30:19.331Z,71.7573
2023-05-09T08:31:22.379Z,71.7695
2023-05-09T08:32:25.424Z,71.7923
2023-05-09T08:33:28.456Z,70.9233
2023-05-09T08:34:29.619Z,72.3851
2023-05-09T08:35:32.602Z,73.9406
2023-05-09T08:37:35.764Z,74.1821
2023-05-09T08:38:38.999Z,73.8570
2023-05-09T08:39:42.025Z,73.7391
2023-05-09T08:40:45.127Z,73.2308
2023-05-09T08:41:48.236Z,72.1623
2023-05-09T08:42:51.451Z,71.4250
2023-05-09T08:43:54.441Z,71.1780
2023-05-09T08:44:57.477Z,69.9701
2023-05-09T08:46:00.676Z,70.5287
2023-05-09T08:47:03.806Z,69.9772
2023-05-09T08:48:07.111Z,70.0171
2023-05-09T08:49:10.512Z,69.1639
2023-05-09T08:50:13.733Z,71.1126
2023-05-09T08:51:17.098Z,71.3218
2023-05-09T08:52:20.121Z,73.2690
2023-05-09T08:53:23.222Z,73.3355
2023-05-09T08:54:26.224Z,73.1614
2023-05-09T08:55:29.259Z,70.3502
2023-05-09T08:56:32.307Z,71.8290
2023-05-09T08:57:35.318Z,71.7784
2023-05-09T08:58:38.370Z,73.5508
2023-05-09T08:59:41.377Z,74.6013
2023-05-09T09:00:44.425Z,74.5744
2023-05-09T09:01:47.523Z,73.3929
2023-05-09T09:02:50.553Z,74.1297
2023-05-09T09:03:53.589Z,74.8101
2023-05-09T09:04:56.705Z,74.9112
2023-05-09T09:05:59.788Z,74.7493
2023-05-09T09:07:02.824Z,74.5279
2023-05-09T09:08:05.853Z,74.1307
2023-05-09T09:09:08.892Z,73.5007
2023-05-09T09:10:11.959Z,71.3524
2023-05-09T09:11:14.951Z,66.4603
2023-05-09T09:12:17.952Z,65.9709
2023-05-09T09:13:21.003Z,69.3574
2023-05-09T09:14:24.077Z,71.8830
2023-05-09T09:15:27.072Z,73.5754
2023-05-09T09:16:30.153Z,71.9247
2023-05-09T09:17:33.232Z,71.3567
2023-05-09T09:18:36.288Z,71.6358
2023-05-09T09:19:39.326Z,72.9214
2023-05-09T09:20:42.394Z,73.0870
2023-05-09T09:21:45.403Z,73.5424
2023-05-09T09:22:48.523Z,72.2783
2023-05-09T09:23:51.533Z,70.7410
2023-05-09T09:24:54.620Z,69.2378
2023-05-09T09:25:59.607Z,68.2877
2023-05-09T09:27:59.449Z,66.9758
2023-05-09T09:29:02.448Z,66.9729
2023-05-09T09:30:05.526Z,66.6137
2023-05-09T09:31:08.514Z,68.5140
2023-05-09T09:32:11.570Z,68.3585
2023-05-09T09:33:14.724Z,67.6471
2023-05-09T09:34:17.698Z,67.5461
2023-05-09T09:35:20.713Z,65.4683
2023-05-09T09:36:23.740Z,63.7640
2023-05-09T09:37:24.005Z,63.9453
2023-05-09T09:38:30.879Z,65.9417
2023-05-09T09:39:34.015Z,64.9945
2023-05-09T09:40:37.016Z,65.3016
2023-05-09T09:41:40.206Z,67.4092
2023-05-09T09:42:43.238Z,66.8088
2023-05-09T09:43:46.257Z,62.4751
2023-05-09T09:44:49.265Z,57.4321
2023-05-09T09:45:52.431Z,55.9301
2023-05-09T09:46:55.490Z,54.8875
2023-05-09T09:47:58.601Z,53.9371
2023-05-09T09:49:01.865Z,54.6719
2023-05-09T09:50:04.935Z,51.0169
2023-05-09T09:51:08.135Z,49.3285
2023-05-09T09:52:11.182Z,51.0221
2023-05-09T09:53:14.194Z,50.1766
2023-05-09T09:54:18.326Z,50.4134
2023-05-09T09:55:17.669Z,49.6360
2023-05-09T09:56:20.621Z,50.6865
2023-05-09T09:57:23.662Z,52.3935
2023-05-09T09:58:26.694Z,54.6700
2023-05-09T09:59:29.981Z,53.9719
2023-05-09T10:00:32.989Z,56.3491
2023-05-09T10:01:36.116Z,56.7984
2023-05-09T10:02:39.393Z,55.0277
2023-05-09T10:03:42.443Z,53.3384
2023-05-09T10:04:43.573Z,54.0610
2023-05-09T10:05:46.585Z,54.2381
2023-05-09T10:06:49.610Z,53.7469
2023-05-09T10:07:52.674Z,55.7211
2023-05-09T10:08:55.678Z,54.3192
2023-05-09T10:09:57.141Z,55.0398
2023-05-09T10:11:00.159Z,53.7503
2023-05-09T10:12:03.627Z,54.2873
2023-05-09T10:13:06.693Z,55.0894
2023-05-09T10:14:09.748Z,52.7572
2023-05-09T10:15:12.749Z,52.0299
2023-05-09T10:16:35.646Z,52.5758
2023-05-09T10:18:25.759Z,52.0427
2023-05-09T10:19:28.838Z,52.3393
2023-05-09T10:20:31.906Z,53.0015
2023-05-09T10:21:36.160Z,53.8895
2023-05-09T10:22:36.343Z,53.6251
2023-05-09T10:23:39.065Z,52.8087
2023-05-09T10:24:42.116Z,53.2522
2023-05-09T10:25:45.166Z,53.1379
2023-05-09T10:26:48.519Z,51.3154
2023-05-09T10:27:51.603Z,52.5096
2023-05-09T10:28:54.632Z,50.9659
2023-05-09T10:29:57.933Z,53.6224
2023-05-09T10:31:01.019Z,54.3683
2023-05-09T10:32:04.056Z,55.7353
2023-05-09T10:33:07.159Z,53.0189
2023-05-09T10:34:10.421Z,56.0461
2023-05-09T10:35:13.657Z,58.4294
2023-05-09T10:36:16.869Z,60.2481
2023-05-09T10:37:20.350Z,61.4767
2023-05-09T10:38:23.414Z,61.7098
2023-05-09T10:39:26.728Z,63.7179
2023-05-09T10:40:29.782Z,61.7603
2023-05-09T10:41:32.832Z,58.8980
2023-05-09T10:42:36.129Z,59.7103
2023-05-09T10:43:38.913Z,59.8831
2023-05-09T10:44:41.959Z,57.6925
2023-05-09T10:45:45.031Z,57.0857
2023-05-09T10:46:48.161Z,57.6794
2023-05-09T10:47:51.336Z,58.3081
2023-05-09T10:48:54.439Z,59.0983
2023-05-09T10:50:02.618Z,58.5776
2023-05-09T10:51:05.613Z,57.5025
2023-05-09T10:52:08.695Z,55.7606
2023-05-09T10:53:11.765Z,56.3598
2023-05-09T10:54:14.820Z,53.8712
2023-05-09T10:55:17.908Z,54.3172
2023-05-09T10:56:20.987Z,53.9816
2023-05-09T10:57:24.330Z,53.2443
2023-05-09T10:58:27.404Z,52.8721
2023-05-09T10:59:30.464Z,57.0311
2023-05-09T11:00:33.538Z,54.3152
2023-05-09T11:02:38.292Z,55.8563
2023-05-09T11:03:41.626Z,58.2223
2023-05-09T11:04:44.774Z,58.9055
2023-05-09T11:05:47.838Z,59.6170
2023-05-09T11:06:50.918Z,58.4428
2023-05-09T11:07:54.108Z,57.9165
2023-05-09T11:08:57.192Z,58.0488
2023-05-09T11:10:00.282Z,57.8719
2023-05-09T11:11:03.368Z,58.4305
2023-05-09T11:13:09.179Z,57.6719
2023-05-09T11:14:12.221Z,57.9037
2023-05-09T11:15:15.446Z,57.2561
2023-05-09T11:16:18.667Z,55.8425
2023-05-09T11:17:22.072Z,55.8042
2023-05-09T11:18:25.242Z,55.5016
2023-05-09T11:19:28.290Z,53.3670
2023-05-09T11:20:31.394Z,52.7683
2023-05-09T11:21:34.654Z,54.9766
2023-05-09T11:22:37.726Z,54.7884
2023-05-09T11:23:40.805Z,56.2403
2023-05-09T11:24:43.864Z,58.5731
2023-05-09T11:25:46.959Z,57.8513
2023-05-09T11:26:49.984Z,57.8736
2023-05-09T11:27:53.100Z,58.3861
2023-05-09T11:28:56.317Z,59.3511
2023-05-09T11:29:59.370Z,59.6405
2023-05-09T11:31:02.448Z,59.5808
2023-05-09T11:32:05.507Z,59.6972
2023-05-09T11:33:09.144Z,58.9852
2023-05-09T11:34:12.405Z,58.5601
2023-05-09T11:35:15.984Z,59.9117
2023-05-09T11:36:15.625Z,58.9657
2023-05-09T11:37:18.701Z,59.0304
2023-05-09T11:38:29.278Z,58.1597
2023-05-09T11:39:32.368Z,56.2967
2023-05-09T11:40:35.461Z,56.5518
2023-05-09T11:41:38.578Z,57.5715
2023-05-09T11:42:41.594Z,57.1843
2023-05-09T11:43:44.676Z,58.2776
2023-05-09T11:44:47.950Z,58.1826
2023-05-09T11:45:51.062Z,56.3993
2023-05-09T11:46:54.167Z,57.7438
2023-05-09T11:47:57.298Z,57.3377
2023-05-09T11:49:07.784Z,56.2568
2023-05-09T11:50:04.069Z,55.9897
2023-05-09T11:51:07.092Z,58.2412
2023-05-09T11:52:10.237Z,58.7551
2023-05-09T11:53:13.420Z,58.7699
2023-05-09T11:54:16.451Z,57.2163
2023-05-09T11:55:19.748Z,57.3081
2023-05-09T11:56:22.846Z,56.4529
2023-05-09T11:57:25.890Z,55.0330
2023-05-09T11:58:28.999Z,52.7462
2023-05-09T11:59:32.083Z,52.8067
2023-05-09T12:00:35.146Z,52.3974
2023-05-09T12:01:38.216Z,51.2933
2023-05-09T12:02:41.396Z,50.5433
2023-05-09T12:03:44.534Z,50.6939
2023-05-09T12:04:47.648Z,53.0306
2023-05-09T12:05:50.938Z,54.9948
2023-05-09T12:06:54.021Z,53.9722
2023-05-09T12:07:57.090Z,54.2362
2023-05-09T12:09:00.181Z,54.1191
2023-05-09T12:10:03.213Z,52.9427
2023-05-09T12:11:06.278Z,52.6732
2023-05-09T12:12:07.502Z,53.4248
2023-05-09T12:13:10.628Z,51.9221
2023-05-09T12:14:13.752Z,52.0499
2023-05-09T12:15:17.112Z,52.5101
2023-05-09T12:16:17.032Z,52.6479
2023-05-09T12:17:19.854Z,51.1194
2023-05-09T12:18:23.273Z,49.6639
2023-05-09T12:19:26.344Z,50.7862
2023-05-09T12:20:29.388Z,53.5135
2023-05-09T12:21:32.446Z,54.4848
2023-05-09T12:22:35.638Z,55.7310
2023-05-09T12:23:38.699Z,54.0662
2023-05-09T12:24:41.805Z,55.4150
2023-05-09T12:25:44.953Z,57.1139
2023-05-09T12:26:48.000Z,55.6234
2023-05-09T12:27:51.089Z,56.5081
2023-05-09T12:28:54.140Z,56.6877
2023-05-09T12:29:57.202Z,55.5511
2023-05-09T12:31:00.279Z,54.8749
2023-05-09T12:33:03.997Z,55.7857
2023-05-09T12:34:07.049Z,55.7154
2023-05-09T12:35:10.127Z,54.9175
2023-05-09T12:36:13.207Z,54.5258
2023-05-09T12:37:14.392Z,56.3429
2023-05-09T12:38:17.665Z,56.1645
2023-05-09T12:39:20.704Z,55.9643
2023-05-09T12:40:23.811Z,56.4789
2023-05-09T12:41:36.907Z,57.3715
2023-05-09T12:42:28.424Z,56.7274
2023-05-09T12:43:31.488Z,57.1576
2023-05-09T12:44:34.576Z,58.6447
2023-05-09T12:45:37.665Z,56.8716
2023-05-09T12:46:40.762Z,57.1004